Terminal Aerodrome Forecast
Issued by NWS

Home | Current Version | Previous Version | Text Only | Print | Product List | Glossary On
Versions: 1 2 3 4 5 6 7 8 9 10 11 12 13 14 15 16 17 18 19 20 21 22 23
000
FTUS43 KMQT 242300
TAFCMX
TAF
KCMX 242320Z 2500/2524 35017G28KT 1/2SM -SN BLSN OVC010
     FM250300 35018G28KT 1SM -SN BLSN OVC010
     FM250700 35016G24KT 2SM -SHSN BLSN OVC010
     FM251000 35014G21KT 3SM -SHSN OVC010
     FM251600 31009KT 5SM -SHSN BKN025=

USA.gov is the U.S. government's official web portal to all federal, state and local government web resources and services.